createdAt,value
2019-04-27T00:02:01.376Z,63.88
2019-04-27T00:04:35.314Z,63.96
2019-04-27T00:07:24.138Z,64.07
2019-04-27T00:09:55.427Z,64.17
2019-04-27T00:12:27.377Z,64.27
2019-04-27T00:14:56.975Z,64.36
2019-04-27T00:17:49.449Z,64.48
2019-04-27T00:20:21.619Z,64.55
2019-04-27T00:23:01.060Z,64.67
2019-04-27T00:25:30.739Z,64.75
2019-04-27T00:28:00.321Z,64.85
2019-04-27T00:30:29.955Z,64.93
2019-04-27T00:32:59.458Z,65.05
2019-04-27T00:35:30.978Z,65.12
2019-04-27T00:38:07.927Z,65.21
2019-04-27T00:40:41.556Z,65.30
2019-04-27T00:43:11.059Z,65.43
2019-04-27T00:45:40.734Z,65.50
2019-04-27T00:48:10.437Z,65.61
2019-04-27T00:50:40.079Z,65.68
2019-04-27T00:53:09.658Z,65.77
2019-04-27T00:55:40.941Z,65.87
2019-04-27T00:58:14.901Z,65.97
2019-04-27T01:00:55.284Z,66.08
2019-04-27T01:03:35.694Z,66.15
2019-04-27T01:06:05.875Z,66.23
2019-04-27T01:08:35.439Z,66.33
2019-04-27T01:11:05.148Z,66.42
2019-04-27T01:13:35.083Z,66.48
2019-04-27T01:16:04.736Z,66.55
2019-04-27T01:18:34.272Z,66.65
2019-04-27T01:21:03.840Z,66.71
2019-04-27T01:23:33.416Z,66.78
2019-04-27T01:26:13.494Z,66.87
2019-04-27T01:28:50.777Z,66.93
2019-04-27T01:31:21.700Z,67.03
2019-04-27T01:33:51.210Z,67.09
2019-04-27T01:36:20.721Z,67.20
2019-04-27T01:38:50.305Z,67.26
2019-04-27T01:41:19.877Z,67.37
2019-04-27T01:43:49.481Z,67.44
2019-04-27T01:46:19.611Z,67.50
2019-04-27T01:48:49.484Z,67.57
2019-04-27T01:51:21.100Z,67.64
2019-04-27T01:53:50.303Z,67.73
2019-04-27T01:56:20.136Z,67.82
2019-04-27T01:58:50.457Z,67.88
2019-04-27T02:01:31.004Z,67.97
2019-04-27T02:04:14.414Z,68.03
2019-04-27T02:06:45.636Z,68.13
2019-04-27T02:09:18.769Z,68.20
2019-04-27T02:11:49.021Z,68.29
2019-04-27T02:14:19.576Z,68.36
2019-04-27T02:16:49.420Z,68.44
2019-04-27T02:19:19.487Z,68.53
2019-04-27T02:21:51.461Z,68.59
2019-04-27T02:24:20.386Z,68.68
2019-04-27T02:26:49.884Z,68.75
2019-04-27T02:29:24.137Z,68.82
2019-04-27T02:32:11.212Z,68.89
2019-04-27T02:34:43.453Z,68.96
2019-04-27T02:37:13.040Z,69.03
2019-04-27T02:39:42.676Z,69.10
2019-04-27T02:42:12.340Z,69.18
2019-04-27T02:44:42.180Z,69.25
2019-04-27T02:47:11.768Z,69.33
2019-04-27T02:49:41.290Z,69.40
2019-04-27T02:52:16.401Z,69.47
2019-04-27T02:54:45.975Z,69.55
2019-04-27T02:57:15.556Z,69.62
2019-04-27T02:59:45.137Z,69.69
2019-04-27T03:02:32.370Z,69.74
2019-04-27T03:05:01.861Z,69.83
2019-04-27T03:07:31.466Z,69.90
2019-04-27T03:10:02.250Z,69.95
2019-04-27T03:12:34.178Z,70.04
2019-04-27T03:15:14.129Z,70.06
2019-04-27T03:18:01.383Z,70.15
2019-04-27T03:20:50.175Z,70.20
2019-04-27T03:23:19.931Z,70.25
2019-04-27T03:25:51.315Z,70.32
2019-04-27T03:28:20.890Z,70.40
2019-04-27T03:30:52.137Z,70.48
2019-04-27T03:33:22.824Z,70.56
2019-04-27T03:35:53.250Z,70.63
2019-04-27T03:38:23.129Z,70.67
2019-04-27T03:40:53.143Z,70.74
2019-04-27T03:43:24.468Z,70.82
2019-04-27T03:45:54.128Z,70.87
2019-04-27T03:48:23.712Z,70.90
2019-04-27T03:50:59.501Z,70.96
2019-04-27T03:53:45.948Z,71.03
2019-04-27T03:56:22.905Z,71.07
2019-04-27T03:59:06.117Z,71.16
2019-04-27T04:01:35.673Z,71.21
2019-04-27T04:04:05.843Z,71.28
2019-04-27T04:06:35.456Z,71.34
2019-04-27T04:09:10.197Z,71.39
2019-04-27T04:11:49.711Z,71.47
2019-04-27T04:14:23.702Z,71.53
2019-04-27T04:17:02.283Z,71.57
2019-04-27T04:19:31.611Z,71.63
2019-04-27T04:22:00.614Z,71.66
2019-04-27T04:24:31.763Z,71.71
2019-04-27T04:27:01.669Z,71.74
2019-04-27T04:29:31.468Z,71.78
2019-04-27T04:32:01.304Z,71.80
2019-04-27T04:34:40.060Z,71.81
2019-04-27T04:37:09.755Z,71.82
2019-04-27T04:39:44.258Z,71.83
2019-04-27T04:42:22.674Z,71.84
2019-04-27T04:45:03.433Z,71.85
2019-04-27T04:47:34.819Z,71.87
2019-04-27T04:50:14.054Z,71.89
2019-04-27T04:52:39.591Z,71.92
2019-04-27T04:55:10.106Z,71.93
2019-04-27T04:57:40.215Z,71.96
2019-04-27T05:00:10.402Z,71.96
2019-04-27T05:02:40.169Z,71.99
2019-04-27T05:05:09.750Z,72.02
2019-04-27T05:07:39.390Z,72.02
2019-04-27T05:10:09.270Z,72.03
2019-04-27T05:12:39.901Z,72.05
2019-04-27T05:15:09.534Z,72.02
2019-04-27T05:17:39.901Z,72.01
2019-04-27T05:20:29.532Z,72.00
2019-04-27T05:22:59.490Z,71.97
2019-04-27T05:25:29.295Z,71.88
2019-04-27T05:27:59.654Z,71.82
2019-04-27T05:30:29.434Z,71.80
2019-04-27T05:32:59.102Z,71.72
2019-04-27T05:35:29.769Z,71.66
2019-04-27T05:38:06.989Z,71.58
2019-04-27T05:40:32.012Z,71.49
2019-04-27T05:43:09.692Z,71.36
2019-04-27T05:45:53.172Z,71.27
2019-04-27T05:48:30.642Z,71.15
2019-04-27T05:51:01.984Z,71.03
2019-04-27T05:53:31.900Z,70.93
2019-04-27T05:56:01.461Z,70.84
2019-04-27T05:58:31.115Z,70.78
2019-04-27T06:01:02.415Z,70.68
2019-04-27T06:03:31.927Z,70.58
2019-04-27T06:06:01.808Z,70.47
2019-04-27T06:08:31.624Z,70.36
2019-04-27T06:11:01.205Z,70.25
2019-04-27T06:13:31.080Z,70.13
2019-04-27T06:16:00.675Z,70.02
2019-04-27T06:18:31.541Z,69.91
2019-04-27T06:21:02.382Z,69.74
2019-04-27T06:23:31.982Z,69.60
2019-04-27T06:26:01.968Z,69.45
2019-04-27T06:28:31.587Z,69.33
2019-04-27T06:31:01.012Z,69.14
2019-04-27T06:33:34.218Z,69.01
2019-04-27T06:36:01.930Z,68.86
2019-04-27T06:38:31.643Z,68.75
2019-04-27T06:41:01.403Z,68.62
2019-04-27T06:43:31.200Z,68.50
2019-04-27T06:46:00.699Z,68.36
2019-04-27T06:48:30.370Z,68.28
2019-04-27T06:51:03.611Z,68.14
2019-04-27T06:53:31.168Z,68.02
2019-04-27T06:56:01.803Z,67.89
2019-04-27T06:58:31.604Z,67.75
2019-04-27T07:01:01.174Z,67.63
2019-04-27T07:03:30.827Z,67.50
2019-04-27T07:06:00.257Z,67.39
2019-04-27T07:08:30.848Z,67.27
2019-04-27T07:11:00.563Z,67.12
2019-04-27T07:13:30.151Z,67.01
2019-04-27T07:15:59.777Z,66.92
2019-04-27T07:18:29.273Z,66.80
2019-04-27T07:20:59.012Z,66.70
2019-04-27T07:23:29.291Z,66.58
2019-04-27T07:25:59.856Z,66.47
2019-04-27T07:28:29.742Z,66.39
2019-04-27T07:30:59.395Z,66.30
2019-04-27T07:33:29.667Z,66.19
2019-04-27T07:35:59.184Z,66.08
2019-04-27T07:38:29.414Z,65.94
2019-04-27T07:40:59.248Z,65.81
2019-04-27T07:43:30.321Z,65.72
2019-04-27T07:46:00.161Z,65.62
2019-04-27T07:48:29.583Z,65.47
2019-04-27T07:50:59.146Z,65.37
2019-04-27T07:53:29.190Z,65.21
2019-04-27T07:55:59.262Z,65.09
2019-04-27T07:58:29.607Z,64.95
2019-04-27T08:00:59.583Z,64.83
2019-04-27T08:03:30.836Z,64.71
2019-04-27T08:06:00.621Z,64.54
2019-04-27T08:08:30.123Z,64.44
2019-04-27T08:10:59.842Z,64.34
2019-04-27T08:13:29.509Z,64.21
2019-04-27T08:15:59.119Z,64.07
2019-04-27T08:18:29.903Z,63.97
2019-04-27T08:21:00.750Z,63.91
2019-04-27T08:23:30.320Z,63.83
2019-04-27T08:25:59.998Z,63.71
2019-04-27T08:28:31.212Z,63.63
2019-04-27T08:31:02.348Z,63.48
2019-04-27T08:33:32.027Z,63.37
2019-04-27T08:36:01.600Z,63.26
2019-04-27T08:38:31.172Z,63.12
2019-04-27T08:41:00.725Z,62.98
2019-04-27T08:43:30.227Z,62.81
2019-04-27T08:46:00.365Z,62.67
2019-04-27T08:48:34.713Z,62.54
2019-04-27T08:51:02.478Z,62.43
2019-04-27T08:53:32.072Z,62.32
2019-04-27T08:56:01.658Z,62.21
2019-04-27T08:58:31.324Z,62.13
2019-04-27T09:01:03.707Z,61.99
2019-04-27T09:03:33.202Z,61.88
2019-04-27T09:06:04.624Z,61.71
2019-04-27T09:08:41.259Z,61.60
2019-04-27T09:11:12.209Z,61.42
2019-04-27T09:13:43.345Z,61.25
2019-04-27T09:16:20.239Z,61.09
2019-04-27T09:18:51.101Z,60.96
2019-04-27T09:21:20.627Z,60.79
2019-04-27T09:23:50.073Z,60.62
2019-04-27T09:26:19.495Z,60.49
2019-04-27T09:28:49.333Z,60.32
2019-04-27T09:31:19.662Z,60.15
2019-04-27T09:33:49.354Z,59.94
2019-04-27T09:36:18.893Z,59.75
2019-04-27T09:38:48.338Z,59.53
2019-04-27T09:41:17.873Z,59.38
2019-04-27T09:43:47.305Z,59.19
2019-04-27T09:46:16.836Z,58.95
2019-04-27T09:48:46.680Z,58.79
2019-04-27T09:51:16.347Z,58.58
2019-04-27T09:53:45.962Z,58.42
2019-04-27T09:56:16.461Z,58.22
2019-04-27T09:58:47.129Z,58.02
2019-04-27T10:01:18.100Z,57.81
2019-04-27T10:03:49.054Z,57.61
2019-04-27T10:06:18.590Z,57.45
2019-04-27T10:08:48.076Z,57.24
2019-04-27T10:11:17.675Z,57.06
2019-04-27T10:13:47.386Z,56.89
2019-04-27T10:16:17.228Z,56.70
2019-04-27T10:18:46.930Z,56.54
2019-04-27T10:21:16.440Z,56.36
2019-04-27T10:23:47.036Z,56.20
2019-04-27T10:26:16.651Z,56.03
2019-04-27T10:28:46.186Z,55.87
2019-04-27T10:31:15.763Z,55.74
2019-04-27T10:33:45.841Z,55.59
2019-04-27T10:36:17.280Z,55.43
2019-04-27T10:38:46.779Z,55.31
2019-04-27T10:41:16.641Z,55.25
2019-04-27T10:43:46.280Z,55.09
2019-04-27T10:46:15.774Z,54.97
2019-04-27T10:48:45.734Z,54.90
2019-04-27T10:51:16.116Z,54.83
2019-04-27T10:53:45.765Z,54.74
2019-04-27T10:56:15.232Z,54.65
2019-04-27T10:58:45.699Z,54.57
2019-04-27T11:01:15.657Z,54.49
2019-04-27T11:04:05.942Z,54.37
2019-04-27T11:06:53.603Z,54.26
2019-04-27T11:09:23.267Z,54.17
2019-04-27T11:11:52.867Z,54.06
2019-04-27T11:14:22.549Z,53.99
2019-04-27T11:16:52.047Z,53.87
2019-04-27T11:19:21.650Z,53.79
2019-04-27T11:21:51.211Z,53.69
2019-04-27T11:24:20.716Z,53.55
2019-04-27T11:26:50.146Z,53.47
2019-04-27T11:29:19.713Z,53.35
2019-04-27T11:31:49.302Z,53.20
2019-04-27T11:34:20.338Z,53.03
2019-04-27T11:36:51.692Z,52.86
2019-04-27T11:39:21.336Z,52.69
2019-04-27T11:41:50.821Z,52.53
2019-04-27T11:44:20.259Z,52.36
2019-04-27T11:46:49.747Z,52.21
2019-04-27T11:49:19.426Z,52.08
2019-04-27T11:51:48.990Z,51.97
2019-04-27T11:54:18.554Z,51.86
2019-04-27T11:56:55.990Z,51.77
2019-04-27T11:59:27.019Z,51.67
2019-04-27T12:01:56.575Z,51.58
2019-04-27T12:04:26.364Z,51.50
2019-04-27T12:09:26.109Z,51.42
2019-04-27T12:12:06.759Z,51.41
2019-04-27T12:14:26.918Z,51.34
2019-04-27T12:16:56.557Z,51.33
2019-04-27T12:19:27.410Z,51.33
2019-04-27T12:21:56.983Z,51.33
2019-04-27T12:24:26.824Z,51.32
2019-04-27T12:27:07.164Z,51.35
2019-04-27T12:29:55.844Z,51.53
2019-04-27T12:32:26.523Z,51.80
2019-04-27T12:34:56.539Z,52.05
2019-04-27T12:37:26.873Z,52.27
2019-04-27T12:39:57.645Z,52.49
2019-04-27T12:42:27.194Z,52.71
2019-04-27T12:44:56.858Z,52.97
2019-04-27T12:47:26.415Z,53.25
2019-04-27T12:49:57.682Z,53.56
2019-04-27T12:52:27.394Z,53.84
2019-04-27T12:55:16.774Z,54.12
2019-04-27T12:57:53.736Z,54.41
2019-04-27T13:00:33.917Z,54.70
2019-04-27T13:03:03.505Z,55.00
2019-04-27T13:05:33.129Z,55.28
2019-04-27T13:08:02.701Z,55.53
2019-04-27T13:10:32.301Z,55.77
2019-04-27T13:13:01.905Z,56.07
2019-04-27T13:15:31.512Z,56.39
2019-04-27T13:18:01.145Z,56.68
2019-04-27T13:20:31.276Z,56.98
2019-04-27T13:23:01.817Z,57.25
2019-04-27T13:25:31.639Z,57.54
2019-04-27T13:28:01.850Z,57.79
2019-04-27T13:30:31.573Z,58.05
2019-04-27T13:33:01.074Z,58.31
2019-04-27T13:35:30.676Z,58.47
2019-04-27T13:38:00.330Z,58.62
2019-04-27T13:40:31.646Z,58.86
2019-04-27T13:43:02.925Z,59.08
2019-04-27T13:45:49.687Z,59.25
2019-04-27T13:48:39.259Z,59.46
2019-04-27T13:51:10.416Z,59.66
2019-04-27T13:53:41.447Z,59.87
2019-04-27T13:56:17.581Z,60.00
2019-04-27T13:58:47.508Z,60.03
2019-04-27T14:01:17.011Z,60.18
2019-04-27T14:03:46.539Z,60.30
2019-04-27T14:06:19.924Z,60.46
2019-04-27T14:08:49.538Z,60.58
2019-04-27T14:11:19.119Z,60.71
2019-04-27T14:13:48.685Z,60.83
2019-04-27T14:16:18.930Z,60.91
2019-04-27T14:18:48.661Z,61.03
2019-04-27T14:21:18.290Z,61.19
2019-04-27T14:23:48.483Z,61.32
2019-04-27T14:26:18.491Z,61.46
2019-04-27T14:28:49.888Z,61.63
2019-04-27T14:31:20.874Z,61.77
2019-04-27T14:33:52.064Z,61.97
2019-04-27T14:36:21.765Z,62.06
2019-04-27T14:38:51.528Z,62.15
2019-04-27T14:41:21.241Z,62.20
2019-04-27T14:44:07.530Z,62.26
2019-04-27T14:46:28.317Z,62.45
2019-04-27T14:48:59.716Z,62.64
2019-04-27T14:51:29.284Z,62.65
2019-04-27T14:54:02.065Z,62.73
2019-04-27T14:56:31.558Z,62.81
2019-04-27T14:59:01.120Z,62.96
2019-04-27T15:01:30.821Z,63.08
2019-04-27T15:04:00.388Z,63.17
2019-04-27T15:06:30.254Z,63.29
2019-04-27T15:09:03.057Z,63.42
2019-04-27T15:11:34.683Z,63.56
2019-04-27T15:14:06.106Z,63.72
2019-04-27T15:16:42.654Z,63.85
2019-04-27T15:19:21.043Z,64.02
2019-04-27T15:21:58.537Z,64.19
2019-04-27T15:24:27.652Z,64.36
2019-04-27T15:27:02.059Z,64.54
2019-04-27T15:29:31.854Z,64.72
2019-04-27T15:32:04.345Z,64.89
2019-04-27T15:34:42.720Z,65.07
2019-04-27T15:37:20.568Z,65.26
2019-04-27T15:40:09.998Z,65.41
2019-04-27T15:42:41.541Z,65.62
2019-04-27T15:45:15.977Z,65.80
2019-04-27T15:47:47.712Z,65.93
2019-04-27T15:50:15.893Z,66.10
2019-04-27T15:52:45.356Z,66.25
2019-04-27T15:55:32.346Z,66.38
2019-04-27T15:57:52.953Z,66.51
2019-04-27T16:00:28.589Z,66.67
2019-04-27T16:02:57.751Z,66.81
2019-04-27T16:05:28.591Z,66.94
2019-04-27T16:08:15.266Z,67.05
2019-04-27T16:10:40.383Z,67.18
2019-04-27T16:13:14.942Z,67.35
2019-04-27T16:18:38.989Z,67.61
2019-04-27T16:21:10.762Z,67.75
2019-04-27T16:23:43.057Z,67.85
2019-04-27T16:26:14.858Z,67.98
2019-04-27T16:28:43.089Z,68.10
2019-04-27T16:31:13.835Z,68.21
2019-04-27T16:33:43.425Z,68.34
2019-04-27T16:36:12.994Z,68.51
2019-04-27T16:38:44.296Z,68.67
2019-04-27T16:41:13.997Z,68.78
2019-04-27T16:43:45.646Z,68.92
2019-04-27T16:46:14.880Z,69.05
2019-04-27T16:48:44.518Z,69.20
2019-04-27T16:51:14.112Z,69.32
2019-04-27T16:53:43.796Z,69.46
2019-04-27T16:56:16.135Z,69.53
2019-04-27T16:58:48.937Z,69.67
2019-04-27T17:01:18.743Z,69.75
2019-04-27T17:03:48.631Z,69.88
2019-04-27T17:06:19.106Z,69.98
2019-04-27T17:08:49.827Z,70.09
2019-04-27T17:11:19.855Z,70.22
2019-04-27T17:13:58.995Z,70.31
2019-04-27T17:16:39.525Z,70.43
2019-04-27T17:19:20.015Z,70.52
2019-04-27T17:21:49.642Z,70.63
2019-04-27T17:24:43.924Z,70.74
2019-04-27T17:27:11.592Z,70.83
2019-04-27T17:29:42.272Z,70.92
2019-04-27T17:32:13.575Z,71.03
2019-04-27T17:34:43.175Z,71.11
2019-04-27T17:37:12.606Z,71.19
2019-04-27T17:39:42.241Z,71.29
2019-04-27T17:42:11.756Z,71.38
2019-04-27T17:44:42.795Z,71.49
2019-04-27T17:47:12.498Z,71.58
2019-04-27T17:49:42.162Z,71.68
2019-04-27T17:52:13.161Z,71.79
2019-04-27T17:54:47.374Z,71.91
2019-04-27T17:57:15.589Z,72.02
2019-04-27T17:59:45.342Z,72.13
2019-04-27T18:02:15.078Z,72.24
2019-04-27T18:04:44.646Z,72.35
2019-04-27T18:07:14.209Z,72.43
2019-04-27T18:09:44.850Z,72.54
2019-04-27T18:12:18.357Z,72.65
2019-04-27T18:14:47.825Z,72.73
2019-04-27T18:17:19.689Z,72.81
2019-04-27T18:19:50.292Z,72.94
2019-04-27T18:22:20.189Z,73.01
2019-04-27T18:24:51.500Z,73.12
2019-04-27T18:27:22.858Z,73.21
2019-04-27T18:29:54.250Z,73.28
2019-04-27T18:32:27.657Z,73.37
2019-04-27T18:34:55.417Z,73.44
2019-04-27T18:37:25.150Z,73.52
2019-04-27T18:39:55.112Z,73.61
2019-04-27T18:42:28.074Z,73.70
2019-04-27T18:44:55.852Z,73.76
2019-04-27T18:47:25.587Z,73.84
2019-04-27T18:50:07.509Z,73.92
2019-04-27T18:52:40.773Z,73.99
2019-04-27T18:55:11.440Z,74.09
2019-04-27T18:57:46.067Z,74.16
2019-04-27T19:00:16.507Z,74.24
2019-04-27T19:02:50.031Z,74.31
2019-04-27T19:05:18.824Z,74.38
2019-04-27T19:07:48.871Z,74.43
2019-04-27T19:10:22.281Z,74.52
2019-04-27T19:12:51.040Z,74.58
2019-04-27T19:15:20.825Z,74.66
2019-04-27T19:17:50.307Z,74.72
2019-04-27T19:20:20.025Z,74.76
2019-04-27T19:22:49.697Z,74.80
2019-04-27T19:25:20.973Z,74.86
2019-04-27T19:27:58.292Z,74.91
2019-04-27T19:30:42.116Z,74.95
2019-04-27T19:33:11.821Z,74.99
2019-04-27T19:35:42.938Z,75.03
2019-04-27T19:38:12.504Z,75.07
2019-04-27T19:40:41.967Z,75.11
2019-04-27T19:43:11.530Z,75.16
2019-04-27T19:45:41.102Z,75.20
2019-04-27T19:48:10.690Z,75.26
2019-04-27T19:50:40.083Z,75.36
2019-04-27T19:53:10.892Z,75.40
2019-04-27T19:55:40.690Z,75.48
2019-04-27T19:58:10.383Z,75.55
2019-04-27T20:00:44.720Z,75.59
2019-04-27T20:03:15.983Z,75.63
2019-04-27T20:05:45.508Z,75.66
2019-04-27T20:08:16.633Z,75.69
2019-04-27T20:10:46.193Z,75.74
2019-04-27T20:13:15.766Z,75.76
2019-04-27T20:15:45.404Z,75.77
2019-04-27T20:18:15.289Z,75.82
2019-04-27T20:20:45.087Z,75.88
2019-04-27T20:23:14.721Z,75.89
2019-04-27T20:25:44.392Z,75.94
2019-04-27T20:28:13.882Z,76.01
2019-04-27T20:30:43.465Z,76.02
2019-04-27T20:33:13.107Z,76.06
2019-04-27T20:35:42.831Z,76.10
2019-04-27T20:38:14.385Z,76.15
2019-04-27T20:40:44.171Z,76.18
2019-04-27T20:43:13.595Z,76.24
2019-04-27T20:45:48.571Z,76.27
2019-04-27T20:48:18.095Z,76.32
2019-04-27T20:50:48.078Z,76.39
2019-04-27T20:53:20.891Z,76.42
2019-04-27T20:55:53.850Z,76.47
2019-04-27T20:58:24.844Z,76.49
2019-04-27T21:00:54.412Z,76.51
2019-04-27T21:03:25.581Z,76.55
2019-04-27T21:05:56.637Z,76.57
2019-04-27T21:08:27.942Z,76.56
2019-04-27T21:10:57.359Z,76.60
2019-04-27T21:13:26.853Z,76.62
2019-04-27T21:15:56.374Z,76.63
2019-04-27T21:18:25.954Z,76.64
2019-04-27T21:20:55.513Z,76.65
2019-04-27T21:23:25.102Z,76.71
2019-04-27T21:25:54.685Z,76.70
2019-04-27T21:28:24.243Z,76.70
2019-04-27T21:30:53.801Z,76.73
2019-04-27T21:33:23.373Z,76.75
2019-04-27T21:35:52.872Z,76.74
2019-04-27T21:38:23.441Z,76.78
2019-04-27T21:40:52.862Z,76.79
2019-04-27T21:43:22.451Z,76.80
2019-04-27T21:45:52.013Z,76.83
2019-04-27T21:48:21.568Z,76.82
2019-04-27T21:50:51.744Z,76.85
2019-04-27T21:53:41.058Z,76.86
2019-04-27T21:56:12.050Z,76.88
2019-04-27T21:58:42.156Z,76.87
2019-04-27T22:01:13.529Z,76.89
2019-04-27T22:03:43.647Z,76.88
2019-04-27T22:06:13.325Z,76.93
2019-04-27T22:08:42.973Z,76.93
2019-04-27T22:11:12.540Z,76.94
2019-04-27T22:13:43.724Z,76.96
2019-04-27T22:16:13.295Z,77.00
2019-04-27T22:18:43.936Z,77.02
2019-04-27T22:21:13.530Z,77.02
2019-04-27T22:23:53.544Z,77.03
2019-04-27T22:26:23.236Z,77.03
2019-04-27T22:28:52.813Z,77.05
2019-04-27T22:31:22.424Z,77.07
2019-04-27T22:33:54.392Z,77.08
2019-04-27T22:36:24.188Z,77.10
2019-04-27T22:38:55.320Z,77.12
2019-04-27T22:41:31.393Z,77.13
2019-04-27T22:44:02.656Z,77.14
2019-04-27T22:46:33.960Z,77.17
2019-04-27T22:49:03.464Z,77.19
2019-04-27T22:51:33.037Z,77.20
2019-04-27T22:54:02.469Z,77.21
2019-04-27T22:56:32.261Z,77.22
2019-04-27T22:59:12.610Z,77.22
2019-04-27T23:01:46.760Z,77.23
2019-04-27T23:04:32.384Z,77.24
2019-04-27T23:07:02.722Z,77.26
2019-04-27T23:09:32.425Z,77.24
2019-04-27T23:12:01.945Z,77.24
2019-04-27T23:14:32.722Z,77.23
2019-04-27T23:17:13.059Z,77.23
2019-04-27T23:19:42.839Z,77.23
2019-04-27T23:22:12.261Z,77.23
2019-04-27T23:24:42.883Z,77.22
2019-04-27T23:27:15.118Z,77.21
2019-04-27T23:29:43.534Z,77.22
2019-04-27T23:32:21.061Z,77.20
2019-04-27T23:34:51.733Z,77.20
2019-04-27T23:37:21.292Z,77.21
2019-04-27T23:39:50.781Z,77.19
2019-04-27T23:42:21.703Z,77.15
2019-04-27T23:44:51.194Z,77.16
2019-04-27T23:47:21.787Z,77.14
2019-04-27T23:49:51.216Z,77.17
2019-04-27T23:52:38.455Z,77.19
2019-04-27T23:55:08.019Z,77.20
2019-04-27T23:57:37.445Z,77.22
